Time;durP1;ratioP1;P1;durP2;ratioP2;P2;SDS_P1;SDS_P2;PMS_P1;PMS_P2;Temp;Humidity;BMP_temperature;BMP_pressure;BME280_temperature;BME280_humidity;BME280_pressure;Samples;Min_cycle;Max_cycle;Signal;HPM_P1;HPM_P2
2021/04/03 00:00:19;;;;;;;5.13;2.57;;;11.90;35.40;;;;;;5090728;28;20627;-51
2021/04/03 00:02:46;;;;;;;3.47;2.30;;;11.90;35.40;;;;;;5083565;28;20693;-51
2021/04/03 00:05:13;;;;;;;3.47;2.17;;;11.90;35.50;;;;;;5089471;28;20722;-51
2021/04/03 00:07:40;;;;;;;4.93;2.37;;;11.80;35.40;;;;;;5093055;28;20709;-51
2021/04/03 00:10:08;;;;;;;9.97;2.50;;;11.80;35.30;;;;;;5097171;28;20624;-51
2021/04/03 00:12:34;;;;;;;4.73;2.67;;;11.80;35.90;;;;;;5099875;28;21023;-51
2021/04/03 00:15:02;;;;;;;1.90;1.80;;;11.80;35.50;;;;;;5092801;28;20678;-49
2021/04/03 00:17:29;;;;;;;4.60;2.43;;;11.80;35.50;;;;;;5089686;28;20689;-50
2021/04/03 00:19:56;;;;;;;3.30;1.63;;;11.80;35.40;;;;;;5091312;28;20679;-50
2021/04/03 00:22:23;;;;;;;3.00;2.13;;;11.80;35.50;;;;;;5091531;28;21225;-50
2021/04/03 00:24:50;;;;;;;2.70;1.90;;;11.80;35.50;;;;;;5088791;28;21024;-50
2021/04/03 00:27:17;;;;;;;4.93;2.07;;;11.80;35.40;;;;;;5091351;28;20696;-50
2021/04/03 00:29:43;;;;;;;3.17;2.40;;;11.80;35.40;;;;;;5091171;28;20724;-49
2021/04/03 00:32:11;;;;;;;2.20;1.70;;;11.80;35.40;;;;;;5090762;28;20624;-51
2021/04/03 00:34:38;;;;;;;3.43;3.10;;;11.80;35.40;;;;;;5091211;28;21046;-49
2021/04/03 00:37:05;;;;;;;5.47;2.37;;;11.80;35.50;;;;;;5090883;28;20644;-52
2021/04/03 00:39:31;;;;;;;4.20;2.00;;;11.70;35.50;;;;;;5080418;28;21164;-49
2021/04/03 00:41:58;;;;;;;2.60;2.07;;;11.70;35.60;;;;;;5090955;28;20701;-50
2021/04/03 00:44:25;;;;;;;2.63;1.73;;;11.60;35.70;;;;;;5091483;28;20633;-50
2021/04/03 00:46:52;;;;;;;3.90;2.40;;;11.70;35.90;;;;;;5087326;28;20725;-52
2021/04/03 00:49:19;;;;;;;2.40;2.00;;;11.70;35.80;;;;;;5093312;28;20720;-49
2021/04/03 00:51:46;;;;;;;2.70;1.90;;;11.70;35.80;;;;;;5096685;28;20620;-50
2021/04/03 00:54:13;;;;;;;2.07;1.87;;;11.60;35.80;;;;;;5097515;28;20693;-50
2021/04/03 00:56:39;;;;;;;3.20;2.10;;;11.60;36.10;;;;;;5088718;28;20664;-51
2021/04/03 00:59:06;;;;;;;4.23;1.60;;;11.50;36.10;;;;;;5098296;28;20970;-51
2021/04/03 01:01:33;;;;;;;2.80;2.00;;;11.50;36.10;;;;;;5095959;28;20658;-51
2021/04/03 01:04:00;;;;;;;4.97;1.60;;;11.50;36.30;;;;;;5091329;28;20644;-51
2021/04/03 01:06:27;;;;;;;3.93;2.07;;;11.50;36.30;;;;;;5091072;28;20651;-51
2021/04/03 01:08:54;;;;;;;2.63;2.43;;;11.40;36.50;;;;;;5083283;28;20657;-51
2021/04/03 01:11:21;;;;;;;2.63;1.70;;;11.40;36.60;;;;;;5096900;28;20620;-51
2021/04/03 01:13:53;;;;;;;3.83;2.17;;;11.40;36.60;;;;;;5086435;28;20655;-51
2021/04/03 01:16:22;;;;;;;2.77;2.00;;;11.40;36.70;;;;;;5094013;28;21014;-51
2021/04/03 01:18:57;;;;;;;4.00;1.60;;;11.30;36.70;;;;;;5094799;28;20726;-51
2021/04/03 01:21:28;;;;;;;4.20;3.20;;;11.30;36.90;;;;;;5089207;28;20611;-51
2021/04/03 01:24:10;;;;;;;2.93;1.73;;;11.30;36.90;;;;;;5091607;28;20657;-51
2021/04/03 01:27:03;;;;;;;3.87;2.40;;;11.30;37.10;;;;;;5097932;28;20674;-51
2021/04/03 01:29:53;;;;;;;1.93;1.80;;;11.30;37.20;;;;;;5093318;28;20808;-51
2021/04/03 01:32:23;;;;;;;5.00;2.60;;;11.30;37.40;;;;;;5100097;28;20615;-51
2021/04/03 01:34:49;;;;;;;4.90;3.17;;;11.30;37.50;;;;;;5096644;28;20645;-51
2021/04/03 01:37:19;;;;;;;3.73;2.30;;;11.20;37.60;;;;;;5090078;28;20713;-51
2021/04/03 01:39:46;;;;;;;2.70;2.33;;;11.20;37.60;;;;;;5087952;28;20616;-51
2021/04/03 01:42:15;;;;;;;6.37;2.40;;;11.20;37.70;;;;;;5094344;28;20623;-51
2021/04/03 01:44:44;;;;;;;4.03;2.60;;;11.20;37.80;;;;;;5099525;28;20667;-51
2021/04/03 01:47:12;;;;;;;3.73;2.43;;;11.20;38.00;;;;;;5090354;28;20701;-51
2021/04/03 01:49:38;;;;;;;2.37;2.17;;;11.10;38.10;;;;;;5091117;28;20780;-51
2021/04/03 01:52:06;;;;;;;4.77;2.73;;;11.10;38.20;;;;;;5091078;28;20624;-51
2021/04/03 01:54:33;;;;;;;2.33;2.13;;;11.00;38.40;;;;;;5090715;28;20612;-51
2021/04/03 01:56:59;;;;;;;3.03;2.37;;;11.10;38.50;;;;;;5089856;28;21126;-51
2021/04/03 01:59:26;;;;;;;4.57;2.67;;;11.00;38.60;;;;;;5090919;28;21168;-51
2021/04/03 02:01:54;;;;;;;3.10;2.47;;;11.00;38.80;;;;;;5090665;28;21200;-51
2021/04/03 02:04:22;;;;;;;5.40;2.87;;;10.90;38.90;;;;;;5090700;28;20672;-50
2021/04/03 02:06:48;;;;;;;4.10;2.90;;;11.00;39.10;;;;;;5089918;28;20710;-50
2021/04/03 02:09:26;;;;;;;3.17;2.87;;;10.90;39.10;;;;;;5089933;28;20705;-52
2021/04/03 02:12:13;;;;;;;3.90;3.13;;;10.90;39.20;;;;;;5089539;28;20624;-52
2021/04/03 02:14:42;;;;;;;7.30;3.00;;;11.00;39.40;;;;;;5089521;28;21001;-51
2021/04/03 02:17:09;;;;;;;5.77;3.47;;;10.90;39.30;;;;;;5085281;28;20660;-51
2021/04/03 02:19:37;;;;;;;4.80;2.90;;;10.90;39.50;;;;;;5077113;28;20625;-52
2021/04/03 02:22:04;;;;;;;4.93;3.43;;;10.90;39.50;;;;;;5091439;28;20616;-52
2021/04/03 02:24:31;;;;;;;8.10;4.43;;;10.90;39.70;;;;;;5098576;28;20704;-49
2021/04/03 02:26:58;;;;;;;4.83;3.50;;;10.90;39.80;;;;;;5099195;28;20717;-50
2021/04/03 02:29:25;;;;;;;4.30;3.27;;;10.90;40.00;;;;;;5093917;28;20656;-50
2021/04/03 02:31:51;;;;;;;4.13;3.33;;;10.90;39.90;;;;;;5088714;28;20705;-50
2021/04/03 02:34:18;;;;;;;7.17;3.43;;;10.90;40.00;;;;;;5098881;28;20619;-50
2021/04/03 02:36:46;;;;;;;3.60;2.83;;;10.90;40.10;;;;;;5099163;28;20747;-50
2021/04/03 02:39:12;;;;;;;5.10;3.53;;;11.00;40.10;;;;;;5103658;28;20615;-50
2021/04/03 02:41:42;;;;;;;3.37;3.03;;;11.10;40.20;;;;;;5103772;28;20620;-50
2021/04/03 02:44:12;;;;;;;10.60;3.40;;;11.10;40.10;;;;;;5094511;28;20620;-50
2021/04/03 02:46:43;;;;;;;6.07;3.30;;;11.10;39.90;;;;;;5095806;28;20648;-50
2021/04/03 02:49:17;;;;;;;4.23;3.77;;;11.20;40.00;;;;;;5098845;28;21215;-49
2021/04/03 02:51:46;;;;;;;5.07;3.70;;;11.20;40.00;;;;;;5085278;28;20693;-50
2021/04/03 02:54:14;;;;;;;10.60;4.10;;;11.20;40.00;;;;;;5088752;28;21231;-49
2021/04/03 02:56:42;;;;;;;4.87;3.60;;;11.20;40.10;;;;;;5101891;28;20643;-52
2021/04/03 02:59:12;;;;;;;5.60;3.47;;;11.10;40.20;;;;;;5101919;28;20665;-50
2021/04/03 03:01:39;;;;;;;5.27;3.70;;;11.20;40.30;;;;;;5092238;28;20607;-50
2021/04/03 03:04:06;;;;;;;6.93;3.40;;;11.20;40.30;;;;;;5097229;28;20635;-50
2021/04/03 03:06:32;;;;;;;4.90;3.73;;;11.20;40.50;;;;;;5092833;28;21409;-50
2021/04/03 03:09:01;;;;;;;8.20;3.97;;;11.10;40.50;;;;;;5092570;28;21275;-50
2021/04/03 03:11:28;;;;;;;6.47;3.47;;;11.10;40.60;;;;;;5092158;28;20676;-50
2021/04/03 03:13:55;;;;;;;4.67;3.93;;;11.10;40.60;;;;;;5097566;28;21088;-50
2021/04/03 03:16:22;;;;;;;9.50;4.30;;;11.20;40.70;;;;;;5090313;28;20712;-50
2021/04/03 03:18:48;;;;;;;4.20;3.30;;;11.20;40.70;;;;;;5086751;28;20628;-49
2021/04/03 03:21:15;;;;;;;5.57;4.30;;;11.20;40.80;;;;;;5088737;28;20717;-51
2021/04/03 03:23:42;;;;;;;5.23;4.03;;;11.20;40.80;;;;;;5088324;28;21394;-50
2021/04/03 03:26:09;;;;;;;11.80;4.47;;;11.10;40.80;;;;;;5100361;28;20681;-50
2021/04/03 03:28:36;;;;;;;9.50;5.03;;;11.10;41.00;;;;;;5097338;28;20670;-50
2021/04/03 03:31:03;;;;;;;7.80;4.80;;;11.10;41.10;;;;;;5092906;28;20624;-51
2021/04/03 03:33:30;;;;;;;6.87;4.70;;;11.00;41.20;;;;;;5093042;28;20620;-51
2021/04/03 03:35:57;;;;;;;9.70;4.63;;;11.00;41.30;;;;;;5093103;28;20681;-51
2021/04/03 03:38:24;;;;;;;4.83;4.17;;;10.90;41.80;;;;;;5092435;28;20628;-51
2021/04/03 03:40:54;;;;;;;4.43;4.03;;;10.90;41.50;;;;;;5092972;28;20636;-51
2021/04/03 03:43:22;;;;;;;7.93;5.13;;;10.90;41.60;;;;;;5091883;28;20680;-50
2021/04/03 03:45:49;;;;;;;5.13;4.63;;;10.90;41.70;;;;;;5092558;28;20624;-51
2021/04/03 03:48:16;;;;;;;8.07;4.50;;;10.90;41.70;;;;;;5092427;28;20705;-51
2021/04/03 03:50:43;;;;;;;7.70;5.70;;;10.90;41.60;;;;;;5072275;28;21126;-50
2021/04/03 03:53:09;;;;;;;5.73;4.80;;;10.80;41.70;;;;;;5088788;28;20624;-51
2021/04/03 03:55:36;;;;;;;6.70;4.87;;;10.80;41.80;;;;;;5073811;28;20631;-51
2021/04/03 03:58:03;;;;;;;7.30;4.47;;;10.80;42.00;;;;;;5092267;28;20698;-51
2021/04/03 04:00:30;;;;;;;6.90;4.00;;;10.80;42.20;;;;;;5092185;28;20632;-50
2021/04/03 04:02:57;;;;;;;6.60;4.73;;;10.70;42.20;;;;;;5092559;28;20635;-50
2021/04/03 04:05:24;;;;;;;5.77;4.77;;;10.70;42.40;;;;;;5092272;28;20629;-50
2021/04/03 04:07:51;;;;;;;6.27;4.90;;;10.70;42.50;;;;;;5091900;28;20652;-51
2021/04/03 04:10:17;;;;;;;10.53;5.00;;;10.70;43.20;;;;;;5092038;28;20705;-51
2021/04/03 04:12:44;;;;;;;7.00;6.30;;;10.60;42.70;;;;;;5092066;28;20669;-51
2021/04/03 04:15:11;;;;;;;12.40;5.00;;;10.60;42.70;;;;;;5092142;28;20952;-51
2021/04/03 04:17:39;;;;;;;5.50;5.10;;;10.60;42.80;;;;;;5091660;28;20706;-51
2021/04/03 04:20:06;;;;;;;4.20;3.70;;;10.60;42.90;;;;;;5092450;28;20963;-51
2021/04/03 04:22:33;;;;;;;7.73;3.80;;;10.60;42.70;;;;;;5088489;28;20655;-51
2021/04/03 04:25:00;;;;;;;4.27;3.80;;;10.70;42.50;;;;;;5097365;28;20624;-51
2021/04/03 04:27:27;;;;;;;5.63;3.77;;;10.70;42.30;;;;;;5098834;28;20713;-52
2021/04/03 04:29:54;;;;;;;13.40;5.70;;;10.70;42.20;;;;;;5091614;28;21277;-50
2021/04/03 04:32:21;;;;;;;7.20;3.47;;;10.70;42.20;;;;;;5073656;28;20682;-50
2021/04/03 04:34:48;;;;;;;6.67;4.30;;;10.70;42.20;;;;;;5070680;28;21139;-50
2021/04/03 04:37:15;;;;;;;6.43;4.17;;;10.70;42.20;;;;;;5089715;28;21037;-50
2021/04/03 04:39:42;;;;;;;4.10;3.23;;;10.70;42.20;;;;;;5100291;28;20673;-51
2021/04/03 04:42:09;;;;;;;5.30;3.33;;;10.70;42.30;;;;;;5099739;28;20678;-51
2021/04/03 04:44:36;;;;;;;7.00;2.97;;;10.60;42.10;;;;;;5091934;28;20612;-51
2021/04/03 04:47:03;;;;;;;5.77;3.70;;;10.60;42.30;;;;;;5091142;28;20660;-50
2021/04/03 04:49:30;;;;;;;3.60;2.67;;;10.60;42.50;;;;;;5091254;28;20652;-50
2021/04/03 04:51:58;;;;;;;8.67;4.23;;;10.50;42.50;;;;;;5087561;28;20628;-52
2021/04/03 04:54:24;;;;;;;5.93;3.53;;;10.50;42.80;;;;;;5096714;28;20978;-50
2021/04/03 04:56:51;;;;;;;5.23;3.13;;;10.50;43.10;;;;;;5099575;28;20660;-50
2021/04/03 04:59:18;;;;;;;3.10;2.83;;;10.50;43.10;;;;;;5090070;28;20624;-50
2021/04/03 05:01:45;;;;;;;7.63;3.70;;;10.50;43.10;;;;;;5091618;28;20654;-50
2021/04/03 05:04:11;;;;;;;7.20;3.00;;;10.50;43.10;;;;;;5091007;28;20624;-50
2021/04/03 05:06:38;;;;;;;8.37;3.37;;;10.50;43.00;;;;;;5091168;28;20651;-50
2021/04/03 05:09:06;;;;;;;3.83;2.90;;;10.40;42.80;;;;;;5090946;28;21220;-50
2021/04/03 05:11:32;;;;;;;5.30;3.03;;;10.40;42.90;;;;;;5091446;28;20632;-50
2021/04/03 05:13:59;;;;;;;6.70;3.53;;;10.40;43.10;;;;;;5091329;28;20628;-52
2021/04/03 05:16:26;;;;;;;5.23;4.07;;;10.40;43.20;;;;;;5090986;28;20652;-50
2021/04/03 05:18:53;;;;;;;5.27;3.30;;;10.40;43.20;;;;;;5091064;28;20628;-51
2021/04/03 05:21:19;;;;;;;3.80;2.43;;;10.30;43.20;;;;;;5091396;28;20632;-50
2021/04/03 05:23:46;;;;;;;7.53;3.00;;;10.40;43.50;;;;;;5080501;28;20629;-50
2021/04/03 05:26:14;;;;;;;4.77;3.40;;;10.30;43.50;;;;;;5075958;28;20728;-50
2021/04/03 05:28:40;;;;;;;5.60;3.50;;;10.30;43.60;;;;;;5091208;28;20628;-51
2021/04/03 05:31:07;;;;;;;4.30;2.70;;;10.30;43.50;;;;;;5091225;28;21330;-50
2021/04/03 05:33:34;;;;;;;4.10;2.90;;;10.30;43.60;;;;;;5090601;28;21187;-50
2021/04/03 05:36:01;;;;;;;4.13;3.20;;;10.30;43.70;;;;;;5073076;28;21192;-50
2021/04/03 05:38:27;;;;;;;3.93;3.20;;;10.30;43.80;;;;;;5090760;28;21038;-50
2021/04/03 05:40:54;;;;;;;4.70;3.57;;;10.30;43.80;;;;;;5090759;28;21180;-50
2021/04/03 05:43:22;;;;;;;3.80;2.80;;;10.30;43.80;;;;;;5091378;28;20620;-50
2021/04/03 05:45:54;;;;;;;6.53;3.57;;;10.30;43.90;;;;;;5090865;28;20659;-51
2021/04/03 05:48:21;;;;;;;8.57;4.03;;;10.30;44.00;;;;;;5090425;28;20663;-50
2021/04/03 05:50:48;;;;;;;4.10;3.03;;;10.30;44.10;;;;;;5090872;28;20652;-51
2021/04/03 05:53:15;;;;;;;4.70;3.63;;;10.30;44.10;;;;;;5090287;28;21144;-51
2021/04/03 05:55:42;;;;;;;6.00;3.47;;;10.20;43.90;;;;;;5084522;28;21180;-51
2021/04/03 05:58:08;;;;;;;6.20;3.80;;;10.20;44.10;;;;;;5100621;28;20672;-51
2021/04/03 06:00:36;;;;;;;6.50;3.60;;;10.20;44.30;;;;;;5102776;28;20660;-51
2021/04/03 06:03:03;;;;;;;3.50;3.20;;;10.20;44.40;;;;;;5111214;28;20700;-50
2021/04/03 06:05:31;;;;;;;8.93;3.70;;;10.20;44.40;;;;;;5102768;28;20646;-50
2021/04/03 06:07:58;;;;;;;3.83;3.53;;;10.20;44.40;;;;;;5092691;28;20647;-50
2021/04/03 06:10:25;;;;;;;5.33;3.47;;;10.20;44.40;;;;;;5094462;28;21243;-50
2021/04/03 06:12:51;;;;;;;5.20;3.50;;;10.20;44.50;;;;;;5094624;28;20689;-50
2021/04/03 06:15:34;;;;;;;3.80;3.30;;;10.20;44.70;;;;;;5094048;28;21004;-50
2021/04/03 06:18:07;;;;;;;4.10;3.20;;;10.20;44.70;;;;;;5094068;28;20716;-50
2021/04/03 06:20:35;;;;;;;7.60;4.00;;;10.30;44.70;;;;;;5094865;28;20612;-50
2021/04/03 06:23:02;;;;;;;3.17;2.87;;;10.30;44.60;;;;;;5094300;28;21030;-50
2021/04/03 06:25:28;;;;;;;3.93;2.67;;;10.40;44.40;;;;;;5094389;28;21038;-50
2021/04/03 06:28:05;;;;;;;5.60;3.03;;;10.40;44.20;;;;;;5093912;28;21081;-50
2021/04/03 06:30:32;;;;;;;8.63;4.00;;;10.50;44.00;;;;;;5094165;28;20655;-51
2021/04/03 06:33:16;;;;;;;8.30;3.30;;;10.50;43.90;;;;;;5094418;28;20634;-52
2021/04/03 06:35:43;;;;;;;7.47;3.50;;;10.50;43.80;;;;;;5093912;28;20612;-51
2021/04/03 06:38:21;;;;;;;8.50;4.20;;;10.50;43.70;;;;;;5093433;28;21239;-50
2021/04/03 06:40:48;;;;;;;6.87;3.33;;;10.50;43.70;;;;;;5093962;28;20673;-51
2021/04/03 06:43:15;;;;;;;11.93;4.40;;;10.40;43.70;;;;;;5093847;28;20612;-50
2021/04/03 06:45:44;;;;;;;8.13;3.80;;;10.30;43.60;;;;;;5094226;28;20627;-51
2021/04/03 06:48:12;;;;;;;4.10;3.30;;;10.30;43.80;;;;;;5093560;28;20716;-50
2021/04/03 06:50:41;;;;;;;6.50;3.63;;;10.40;43.80;;;;;;5093699;28;20717;-50
2021/04/03 06:53:11;;;;;;;3.63;3.10;;;10.60;43.90;;;;;;5093520;28;20624;-51
2021/04/03 06:55:39;;;;;;;5.17;3.10;;;10.70;43.50;;;;;;5093379;28;20632;-51
2021/04/03 06:58:06;;;;;;;4.03;2.90;;;10.90;42.90;;;;;;5093527;28;20713;-52
2021/04/03 07:00:33;;;;;;;4.53;2.80;;;11.10;42.70;;;;;;5092760;28;20624;-50
2021/04/03 07:03:01;;;;;;;8.90;3.53;;;11.30;42.40;;;;;;5099669;28;20640;-53
2021/04/03 07:05:31;;;;;;;6.70;3.50;;;11.40;42.10;;;;;;5108448;28;20620;-50
2021/04/03 07:08:00;;;;;;;8.80;4.00;;;11.50;41.60;;;;;;5090522;28;20715;-50
2021/04/03 07:10:28;;;;;;;5.90;3.20;;;11.80;41.30;;;;;;5101964;28;21214;-52
2021/04/03 07:12:55;;;;;;;3.60;3.20;;;11.90;40.90;;;;;;5105569;28;20633;-51
2021/04/03 07:15:22;;;;;;;6.97;3.10;;;12.00;40.20;;;;;;5093242;28;20654;-51
2021/04/03 07:17:49;;;;;;;5.17;3.43;;;12.10;40.00;;;;;;5092298;28;20711;-51
2021/04/03 07:20:16;;;;;;;4.40;2.70;;;12.30;39.90;;;;;;5092215;28;20627;-51
2021/04/03 07:22:45;;;;;;;4.53;2.90;;;12.40;39.40;;;;;;5092060;28;20664;-51
2021/04/03 07:25:13;;;;;;;10.13;3.20;;;12.50;39.00;;;;;;5072617;28;20678;-51
2021/04/03 07:27:42;;;;;;;3.23;2.67;;;12.70;39.00;;;;;;5072148;28;20714;-51
2021/04/03 07:30:09;;;;;;;6.70;3.33;;;12.80;39.30;;;;;;5072657;28;20706;-52
2021/04/03 07:32:38;;;;;;;4.77;3.07;;;13.00;38.70;;;;;;5092982;28;20620;-52
2021/04/03 07:35:18;;;;;;;5.00;2.37;;;13.10;38.30;;;;;;5093174;28;21009;-52
2021/04/03 07:37:45;;;;;;;4.77;2.70;;;13.20;37.90;;;;;;5092522;28;21044;-55
2021/04/03 07:40:36;;;;;;;11.83;4.13;;;13.30;37.40;;;;;;5092676;28;20620;-51
2021/04/03 07:43:03;;;;;;;5.87;2.77;;;13.40;37.40;;;;;;5092681;28;21218;-52
2021/04/03 07:45:47;;;;;;;8.20;3.00;;;13.40;37.10;;;;;;5092559;28;20689;-52
2021/04/03 07:48:48;;;;;;;7.40;3.73;;;13.20;36.80;;;;;;5090650;28;20655;-51
2021/04/03 07:51:16;;;;;;;7.97;3.07;;;13.20;37.10;;;;;;5079746;28;20742;-51
2021/04/03 07:53:43;;;;;;;6.63;3.43;;;13.10;37.30;;;;;;5072491;28;20621;-52
2021/04/03 07:56:12;;;;;;;9.63;3.50;;;13.00;37.50;;;;;;5079330;28;21250;-51
2021/04/03 07:58:39;;;;;;;5.50;2.80;;;12.90;37.80;;;;;;5091138;28;20627;-51
2021/04/03 08:01:06;;;;;;;6.90;3.70;;;12.90;38.10;;;;;;5102113;28;20629;-51
2021/04/03 08:03:34;;;;;;;8.27;3.80;;;12.80;38.10;;;;;;5101404;28;20688;-51
2021/04/03 08:06:02;;;;;;;7.47;3.73;;;13.00;38.10;;;;;;5105646;28;20620;-52
2021/04/03 08:08:29;;;;;;;7.90;3.73;;;13.30;37.50;;;;;;5096956;28;20648;-51
2021/04/03 08:11:10;;;;;;;6.20;3.90;;;13.60;37.10;;;;;;5094827;28;20656;-51
2021/04/03 08:13:38;;;;;;;7.50;2.90;;;13.60;36.30;;;;;;5074083;28;20644;-51
2021/04/03 08:16:06;;;;;;;5.07;2.90;;;13.70;36.60;;;;;;5091753;28;20616;-51
2021/04/03 08:18:34;;;;;;;8.40;4.50;;;13.80;36.40;;;;;;5091298;28;20620;-51
2021/04/03 08:21:00;;;;;;;5.70;2.70;;;13.80;36.10;;;;;;5091588;28;20628;-51
2021/04/03 08:23:34;;;;;;;5.60;3.33;;;13.80;35.70;;;;;;5091199;28;20628;-51
2021/04/03 08:26:01;;;;;;;6.67;3.20;;;13.70;35.30;;;;;;5091430;28;21016;-50
2021/04/03 08:28:28;;;;;;;6.73;3.73;;;13.70;35.50;;;;;;5091029;28;21249;-51
2021/04/03 08:30:56;;;;;;;7.83;3.40;;;13.70;35.60;;;;;;5091400;28;20648;-51
2021/04/03 08:33:23;;;;;;;4.43;2.70;;;13.80;36.00;;;;;;5091558;28;21054;-51
2021/04/03 08:35:50;;;;;;;10.40;3.87;;;14.10;35.20;;;;;;5085758;28;20625;-51
2021/04/03 08:38:20;;;;;;;10.13;3.57;;;14.30;34.80;;;;;;5091438;28;21305;-50
2021/04/03 08:40:47;;;;;;;6.93;3.40;;;14.40;34.50;;;;;;5099750;28;20669;-51
2021/04/03 08:43:18;;;;;;;6.03;2.83;;;14.60;34.10;;;;;;5104977;28;20677;-51
2021/04/03 08:45:45;;;;;;;8.73;3.13;;;14.70;34.00;;;;;;5095405;28;20631;-51
2021/04/03 08:48:14;;;;;;;7.60;3.83;;;14.80;33.50;;;;;;5091466;28;20687;-51
2021/04/03 08:50:41;;;;;;;11.77;4.00;;;15.00;33.60;;;;;;5091583;28;20653;-52
2021/04/03 08:53:08;;;;;;;5.40;3.33;;;15.10;33.20;;;;;;5076013;28;20633;-51
2021/04/03 08:55:35;;;;;;;4.87;3.43;;;15.10;33.10;;;;;;5089114;28;20632;-51
2021/04/03 08:58:02;;;;;;;10.30;4.20;;;15.10;33.30;;;;;;5091067;28;20652;-52
2021/04/03 09:00:30;;;;;;;6.30;3.40;;;15.20;33.20;;;;;;5091945;28;20650;-51
2021/04/03 09:02:57;;;;;;;10.33;3.30;;;15.20;32.90;;;;;;5091666;28;20624;-51
2021/04/03 09:05:24;;;;;;;8.87;4.00;;;15.20;33.20;;;;;;5091199;28;20697;-52
2021/04/03 09:07:51;;;;;;;5.73;3.20;;;15.20;33.10;;;;;;5090761;28;20656;-51
2021/04/03 09:10:20;;;;;;;13.40;4.20;;;15.30;33.20;;;;;;5090697;28;20652;-51
2021/04/03 09:12:47;;;;;;;4.97;2.80;;;15.40;33.40;;;;;;5091054;28;20628;-50
2021/04/03 09:15:14;;;;;;;7.13;3.90;;;15.50;33.20;;;;;;5091120;28;21255;-51
2021/04/03 09:17:46;;;;;;;6.00;3.60;;;15.50;32.80;;;;;;5090974;28;20656;-51
2021/04/03 09:20:16;;;;;;;7.10;3.07;;;15.60;33.00;;;;;;5090946;28;20628;-51
2021/04/03 09:22:44;;;;;;;9.53;3.00;;;15.70;32.70;;;;;;5090666;28;20632;-52
2021/04/03 09:25:11;;;;;;;7.77;3.30;;;15.70;32.80;;;;;;5091151;28;20620;-53
2021/04/03 09:27:38;;;;;;;8.97;4.43;;;15.60;32.80;;;;;;5090088;28;21071;-51
2021/04/03 09:30:06;;;;;;;5.27;3.60;;;15.60;33.00;;;;;;5090891;28;20687;-51
2021/04/03 09:32:42;;;;;;;11.00;3.40;;;15.60;33.10;;;;;;5091057;28;20608;-52
2021/04/03 09:35:10;;;;;;;5.80;4.10;;;15.70;33.30;;;;;;5091011;28;20679;-52
2021/04/03 09:37:37;;;;;;;9.73;3.73;;;15.90;33.00;;;;;;5090799;28;20668;-52
2021/04/03 09:40:06;;;;;;;8.10;2.70;;;15.90;32.60;;;;;;5090830;28;20986;-52
2021/04/03 09:42:33;;;;;;;5.93;3.40;;;15.80;32.20;;;;;;5092269;28;20616;-52
2021/04/03 09:45:05;;;;;;;10.20;3.90;;;15.80;32.70;;;;;;5094715;28;21190;-54
2021/04/03 09:47:32;;;;;;;8.33;4.07;;;15.90;32.50;;;;;;5074322;28;20664;-52
2021/04/03 09:49:59;;;;;;;7.47;3.77;;;15.90;32.00;;;;;;5074649;28;20762;-52
2021/04/03 09:52:26;;;;;;;6.07;3.40;;;15.90;32.00;;;;;;5091172;28;20762;-52
2021/04/03 09:54:52;;;;;;;5.67;3.83;;;16.10;32.10;;;;;;5111109;28;20984;-52
2021/04/03 09:57:20;;;;;;;8.13;2.80;;;16.20;31.70;;;;;;5098479;28;20659;-52
2021/04/03 09:59:47;;;;;;;7.40;3.27;;;16.30;31.40;;;;;;5106396;28;20672;-52
2021/04/03 10:02:14;;;;;;;7.73;4.23;;;16.50;31.50;;;;;;5085687;28;20654;-52
2021/04/03 10:04:41;;;;;;;5.93;3.23;;;16.70;31.10;;;;;;5091353;28;20675;-50
2021/04/03 10:07:07;;;;;;;7.90;3.17;;;16.90;31.00;;;;;;5096471;28;20660;-51
2021/04/03 10:09:35;;;;;;;7.53;3.93;;;16.90;30.60;;;;;;5096075;28;20912;-51
2021/04/03 10:12:02;;;;;;;6.60;2.83;;;17.10;30.40;;;;;;5104930;28;20685;-52
2021/04/03 10:14:29;;;;;;;7.73;4.63;;;17.20;30.30;;;;;;5093441;28;21168;-53
2021/04/03 10:16:56;;;;;;;7.90;4.13;;;17.20;30.00;;;;;;5104145;28;20687;-51
2021/04/03 10:19:23;;;;;;;7.43;4.53;;;17.20;30.10;;;;;;5102287;28;20620;-53
2021/04/03 10:21:50;;;;;;;6.73;2.70;;;17.30;30.00;;;;;;5087396;28;20709;-53
2021/04/03 10:24:19;;;;;;;3.60;3.30;;;17.50;30.00;;;;;;5086627;28;21275;-52
2021/04/03 10:26:46;;;;;;;6.43;3.30;;;17.70;29.80;;;;;;5086801;28;20656;-51
2021/04/03 10:29:13;;;;;;;5.57;3.23;;;17.90;29.70;;;;;;5095415;28;21011;-52
2021/04/03 10:31:41;;;;;;;5.40;2.90;;;18.10;29.10;;;;;;5088770;28;20733;-52
2021/04/03 10:34:07;;;;;;;6.53;3.83;;;18.30;28.80;;;;;;5094433;28;21188;-53
2021/04/03 10:36:34;;;;;;;7.90;4.90;;;18.50;28.40;;;;;;5082830;28;21004;-51
2021/04/03 10:39:01;;;;;;;3.83;3.13;;;18.70;28.20;;;;;;5094468;28;20631;-53
2021/04/03 10:41:28;;;;;;;5.87;4.70;;;19.10;28.80;;;;;;5087065;28;20650;-52
2021/04/03 10:43:55;;;;;;;6.20;5.60;;;19.60;28.20;;;;;;5104105;28;21015;-52
2021/04/03 10:46:21;;;;;;;4.77;4.10;;;20.20;27.80;;;;;;5089841;28;20680;-53
2021/04/03 10:48:49;;;;;;;6.17;3.03;;;20.50;27.40;;;;;;5091629;28;20625;-52
2021/04/03 10:51:16;;;;;;;5.90;3.77;;;20.70;27.10;;;;;;5085544;28;20775;-52
2021/04/03 10:53:42;;;;;;;3.30;2.07;;;20.50;26.60;;;;;;5102349;28;20615;-53
2021/04/03 10:56:10;;;;;;;6.00;3.13;;;20.20;26.10;;;;;;5093972;28;20632;-52
2021/04/03 10:58:37;;;;;;;3.17;1.83;;;20.20;25.90;;;;;;5091522;28;20627;-52
2021/04/03 11:01:03;;;;;;;4.63;2.80;;;20.00;25.50;;;;;;5091826;28;20620;-53
2021/04/03 11:03:30;;;;;;;6.13;2.60;;;19.80;26.30;;;;;;5092202;28;20616;-52
2021/04/03 11:05:58;;;;;;;6.00;2.40;;;20.10;26.30;;;;;;5097531;28;20631;-52
2021/04/03 11:08:25;;;;;;;6.40;4.13;;;20.00;26.20;;;;;;5104640;28;20676;-53
2021/04/03 11:10:52;;;;;;;5.40;3.50;;;19.70;26.50;;;;;;5095048;28;20655;-52
2021/04/03 11:13:18;;;;;;;5.07;3.47;;;19.50;27.00;;;;;;5092277;28;20626;-54
2021/04/03 11:15:46;;;;;;;4.60;3.23;;;19.50;26.70;;;;;;5091872;28;20616;-52
2021/04/03 11:18:13;;;;;;;4.10;3.10;;;19.90;26.90;;;;;;5070642;28;20697;-53
2021/04/03 11:20:39;;;;;;;5.90;3.13;;;20.40;26.40;;;;;;5082929;28;20949;-53
2021/04/03 11:23:07;;;;;;;3.37;2.73;;;20.90;25.70;;;;;;5083806;28;20709;-52
2021/04/03 11:25:34;;;;;;;4.53;3.10;;;21.10;25.00;;;;;;5091779;28;20640;-52
2021/04/03 11:28:01;;;;;;;3.40;2.13;;;21.20;24.80;;;;;;5096757;28;20672;-51
2021/04/03 11:30:28;;;;;;;6.60;2.70;;;21.30;24.50;;;;;;5099816;28;21152;-51
2021/04/03 11:32:55;;;;;;;4.73;2.00;;;21.10;24.90;;;;;;5082690;28;20618;-51
2021/04/03 11:35:23;;;;;;;8.00;3.27;;;20.70;25.40;;;;;;5072633;28;20617;-51
2021/04/03 11:37:50;;;;;;;3.40;2.73;;;20.40;25.70;;;;;;5082671;28;20656;-52
2021/04/03 11:40:18;;;;;;;4.80;2.77;;;20.30;26.40;;;;;;5096842;28;20945;-51
2021/04/03 11:42:45;;;;;;;7.57;3.07;;;20.60;26.40;;;;;;5101365;28;20744;-52
2021/04/03 11:45:13;;;;;;;3.97;2.60;;;21.00;25.70;;;;;;5103853;28;20624;-52
2021/04/03 11:47:40;;;;;;;5.53;2.80;;;21.30;25.30;;;;;;5112892;28;21207;-52
2021/04/03 11:50:08;;;;;;;4.27;2.20;;;21.30;25.20;;;;;;5113526;28;21252;-52
2021/04/03 11:52:35;;;;;;;5.10;3.10;;;21.10;24.90;;;;;;5108773;28;21181;-52
2021/04/03 11:55:02;;;;;;;4.87;2.87;;;20.80;25.00;;;;;;5101929;28;20710;-52
2021/04/03 11:57:30;;;;;;;5.10;2.73;;;20.70;25.30;;;;;;5091447;28;20656;-52
2021/04/03 11:59:56;;;;;;;6.30;2.67;;;20.70;25.40;;;;;;5092439;28;21234;-52
2021/04/03 12:02:23;;;;;;;4.40;2.33;;;20.90;25.30;;;;;;5092388;28;20649;-52
2021/04/03 12:04:50;;;;;;;6.23;2.40;;;20.70;24.90;;;;;;5091962;28;21246;-51
2021/04/03 12:07:17;;;;;;;6.20;3.67;;;20.40;24.70;;;;;;5091575;28;20737;-52
2021/04/03 12:09:44;;;;;;;5.50;1.77;;;20.20;24.50;;;;;;5092374;28;20679;-51
2021/04/03 12:12:11;;;;;;;2.80;2.30;;;20.20;24.90;;;;;;5092112;28;20656;-52
2021/04/03 12:14:38;;;;;;;3.20;1.53;;;20.50;24.30;;;;;;5093106;28;20650;-53
2021/04/03 12:17:05;;;;;;;4.50;1.83;;;20.90;24.10;;;;;;5092054;28;20698;-52
2021/04/03 12:19:32;;;;;;;2.63;1.90;;;21.10;23.40;;;;;;5091763;28;20753;-52
2021/04/03 12:21:59;;;;;;;4.43;1.90;;;21.00;22.80;;;;;;5073694;28;20625;-52
2021/04/03 12:24:25;;;;;;;2.03;1.70;;;20.80;23.00;;;;;;5091221;28;20631;-52
2021/04/03 12:26:52;;;;;;;3.27;1.97;;;20.60;23.20;;;;;;5091454;28;21392;-51
2021/04/03 12:29:19;;;;;;;2.23;1.90;;;20.30;23.00;;;;;;5091450;28;20656;-52
2021/04/03 12:31:47;;;;;;;4.30;1.60;;;20.10;23.60;;;;;;5073443;28;21232;-52
2021/04/03 12:34:13;;;;;;;3.33;1.70;;;19.90;23.50;;;;;;5091710;28;20685;-52
2021/04/03 12:36:40;;;;;;;3.50;1.60;;;19.80;23.70;;;;;;5073435;28;20657;-52
2021/04/03 12:39:07;;;;;;;1.90;1.30;;;19.90;23.70;;;;;;5084508;28;20638;-53
2021/04/03 12:41:34;;;;;;;3.70;1.70;;;20.10;23.20;;;;;;5086057;28;20640;-52
2021/04/03 12:44:01;;;;;;;3.00;1.50;;;20.50;23.00;;;;;;5081730;28;20693;-52
2021/04/03 12:46:28;;;;;;;1.90;1.70;;;21.10;22.90;;;;;;5083688;28;20648;-52
2021/04/03 12:48:56;;;;;;;1.80;1.33;;;21.50;21.80;;;;;;5073254;28;20794;-52